sensor_id;sensor_type;location;lat;lon;timestamp;temperature;humidity
26745;DHT22;14342;50.960;13.880;2023-11-22T00:00:12;1.70;99.90
26745;DHT22;14342;50.960;13.880;2023-11-22T00:01:15;1.60;99.90
26745;DHT22;14342;50.960;13.880;2023-11-22T00:02:16;1.50;99.90
26745;DHT22;14342;50.960;13.880;2023-11-22T00:03:18;1.50;99.90
26745;DHT22;14342;50.960;13.880;2023-11-22T00:04:19;1.40;99.90
26745;DHT22;14342;50.960;13.880;2023-11-22T00:05:21;1.50;99.90
26745;DHT22;14342;50.960;13.880;2023-11-22T00:06:22;1.40;99.90
26745;DHT22;14342;50.960;13.880;2023-11-22T00:07:23;1.40;99.90
26745;DHT22;14342;50.960;13.880;2023-11-22T00:08:24;1.40;99.90
26745;DHT22;14342;50.960;13.880;2023-11-22T00:09:25;1.30;99.90
26745;DHT22;14342;50.960;13.880;2023-11-22T00:10:26;1.10;99.90
26745;DHT22;14342;50.960;13.880;2023-11-22T00:11:28;1.40;99.90
26745;DHT22;14342;50.960;13.880;2023-11-22T00:12:30;1.40;99.90
26745;DHT22;14342;50.960;13.880;2023-11-22T00:13:36;1.40;99.90
26745;DHT22;14342;50.960;13.880;2023-11-22T00:14:38;1.40;99.90
26745;DHT22;14342;50.960;13.880;2023-11-22T00:15:39;1.40;99.90
26745;DHT22;14342;50.960;13.880;2023-11-22T00:16:41;1.40;99.90
26745;DHT22;14342;50.960;13.880;2023-11-22T00:17:43;1.50;99.90
26745;DHT22;14342;50.960;13.880;2023-11-22T00:18:44;1.60;99.90
26745;DHT22;14342;50.960;13.880;2023-11-22T00:19:45;1.60;99.90
26745;DHT22;14342;50.960;13.880;2023-11-22T00:20:47;1.50;99.90
26745;DHT22;14342;50.960;13.880;2023-11-22T00:21:49;1.40;99.90
26745;DHT22;14342;50.960;13.880;2023-11-22T00:22:50;1.40;99.90
26745;DHT22;14342;50.960;13.880;2023-11-22T00:23:50;1.40;99.90
26745;DHT22;14342;50.960;13.880;2023-11-22T00:24:52;1.30;99.90
26745;DHT22;14342;50.960;13.880;2023-11-22T00:25:53;1.30;99.90
26745;DHT22;14342;50.960;13.880;2023-11-22T00:26:54;1.30;99.90
26745;DHT22;14342;50.960;13.880;2023-11-22T00:27:55;1.30;99.90
26745;DHT22;14342;50.960;13.880;2023-11-22T00:28:56;1.30;99.90
26745;DHT22;14342;50.960;13.880;2023-11-22T00:29:57;1.40;99.90
26745;DHT22;14342;50.960;13.880;2023-11-22T00:30:58;1.40;99.90
26745;DHT22;14342;50.960;13.880;2023-11-22T00:32:01;1.50;99.90
26745;DHT22;14342;50.960;13.880;2023-11-22T00:33:02;1.50;99.90
26745;DHT22;14342;50.960;13.880;2023-11-22T00:34:05;1.40;99.90
26745;DHT22;14342;50.960;13.880;2023-11-22T00:35:05;1.30;99.90
26745;DHT22;14342;50.960;13.880;2023-11-22T00:36:08;1.40;99.90
26745;DHT22;14342;50.960;13.880;2023-11-22T00:37:08;1.40;99.90
26745;DHT22;14342;50.960;13.880;2023-11-22T00:38:11;1.40;99.90
26745;DHT22;14342;50.960;13.880;2023-11-22T00:39:12;1.50;99.90
26745;DHT22;14342;50.960;13.880;2023-11-22T00:40:14;1.50;99.90
26745;DHT22;14342;50.960;13.880;2023-11-22T00:41:14;1.60;99.90
26745;DHT22;14342;50.960;13.880;2023-11-22T00:42:16;1.60;99.90
26745;DHT22;14342;50.960;13.880;2023-11-22T00:43:20;1.60;99.90
26745;DHT22;14342;50.960;13.880;2023-11-22T00:44:21;1.60;99.90
26745;DHT22;14342;50.960;13.880;2023-11-22T00:45:23;1.50;99.90
26745;DHT22;14342;50.960;13.880;2023-11-22T00:46:23;1.50;99.90
26745;DHT22;14342;50.960;13.880;2023-11-22T00:47:26;1.50;99.90
26745;DHT22;14342;50.960;13.880;2023-11-22T00:48:27;1.50;99.90
26745;DHT22;14342;50.960;13.880;2023-11-22T00:49:29;1.50;99.90
26745;DHT22;14342;50.960;13.880;2023-11-22T00:50:29;1.50;99.90
26745;DHT22;14342;50.960;13.880;2023-11-22T00:51:30;1.50;99.90
26745;DHT22;14342;50.960;13.880;2023-11-22T00:52:32;1.50;99.90
26745;DHT22;14342;50.960;13.880;2023-11-22T00:53:32;1.50;99.90
26745;DHT22;14342;50.960;13.880;2023-11-22T00:54:34;1.50;99.90
26745;DHT22;14342;50.960;13.880;2023-11-22T00:55:34;1.60;99.90
26745;DHT22;14342;50.960;13.880;2023-11-22T00:56:36;1.60;99.90
26745;DHT22;14342;50.960;13.880;2023-11-22T00:57:37;1.50;99.90
26745;DHT22;14342;50.960;13.880;2023-11-22T00:58:38;1.40;99.90
26745;DHT22;14342;50.960;13.880;2023-11-22T00:59:39;1.40;99.90
26745;DHT22;14342;50.960;13.880;2023-11-22T01:00:41;1.40;99.90
26745;DHT22;14342;50.960;13.880;2023-11-22T01:01:41;1.40;99.90
26745;DHT22;14342;50.960;13.880;2023-11-22T01:02:44;1.50;99.90
26745;DHT22;14342;50.960;13.880;2023-11-22T01:03:45;1.50;99.90
26745;DHT22;14342;50.960;13.880;2023-11-22T01:04:47;1.60;99.90
26745;DHT22;14342;50.960;13.880;2023-11-22T01:05:47;1.60;99.90
26745;DHT22;14342;50.960;13.880;2023-11-22T01:06:49;1.70;99.90
26745;DHT22;14342;50.960;13.880;2023-11-22T01:07:50;1.60;99.90
26745;DHT22;14342;50.960;13.880;2023-11-22T01:08:51;1.50;99.90
26745;DHT22;14342;50.960;13.880;2023-11-22T01:09:52;1.60;99.90
26745;DHT22;14342;50.960;13.880;2023-11-22T01:10:53;1.70;99.90
26745;DHT22;14342;50.960;13.880;2023-11-22T01:11:55;1.70;99.90
26745;DHT22;14342;50.960;13.880;2023-11-22T01:12:55;1.80;99.90
26745;DHT22;14342;50.960;13.880;2023-11-22T01:13:57;1.80;99.90
26745;DHT22;14342;50.960;13.880;2023-11-22T01:14:58;1.80;99.90
26745;DHT22;14342;50.960;13.880;2023-11-22T01:15:58;1.80;99.90
26745;DHT22;14342;50.960;13.880;2023-11-22T01:17:00;1.80;99.90
26745;DHT22;14342;50.960;13.880;2023-11-22T01:18:02;1.70;99.90
26745;DHT22;14342;50.960;13.880;2023-11-22T01:19:04;1.60;99.90
26745;DHT22;14342;50.960;13.880;2023-11-22T01:20:05;1.60;99.90
26745;DHT22;14342;50.960;13.880;2023-11-22T01:21:07;1.70;99.90
26745;DHT22;14342;50.960;13.880;2023-11-22T01:22:08;1.70;99.90
26745;DHT22;14342;50.960;13.880;2023-11-22T01:23:10;1.70;99.90
26745;DHT22;14342;50.960;13.880;2023-11-22T01:24:10;1.70;99.90
26745;DHT22;14342;50.960;13.880;2023-11-22T01:25:12;1.70;99.90
26745;DHT22;14342;50.960;13.880;2023-11-22T01:26:13;1.70;99.90
26745;DHT22;14342;50.960;13.880;2023-11-22T01:27:14;1.70;99.90
26745;DHT22;14342;50.960;13.880;2023-11-22T01:28:15;1.60;99.90
26745;DHT22;14342;50.960;13.880;2023-11-22T01:29:17;1.60;99.90
26745;DHT22;14342;50.960;13.880;2023-11-22T01:30:18;1.60;99.90
26745;DHT22;14342;50.960;13.880;2023-11-22T01:31:20;1.50;99.90
26745;DHT22;14342;50.960;13.880;2023-11-22T01:32:21;1.50;99.90
26745;DHT22;14342;50.960;13.880;2023-11-22T01:33:24;1.50;99.90
26745;DHT22;14342;50.960;13.880;2023-11-22T01:34:25;1.50;99.90
26745;DHT22;14342;50.960;13.880;2023-11-22T01:35:26;1.50;99.90
26745;DHT22;14342;50.960;13.880;2023-11-22T01:36:27;1.40;99.90
26745;DHT22;14342;50.960;13.880;2023-11-22T01:37:29;1.50;99.90
26745;DHT22;14342;50.960;13.880;2023-11-22T01:38:30;1.50;99.90
26745;DHT22;14342;50.960;13.880;2023-11-22T01:39:30;1.50;99.90
26745;DHT22;14342;50.960;13.880;2023-11-22T01:40:32;1.50;99.90
26745;DHT22;14342;50.960;13.880;2023-11-22T01:41:33;1.50;99.90
26745;DHT22;14342;50.960;13.880;2023-11-22T01:42:34;1.50;99.90
26745;DHT22;14342;50.960;13.880;2023-11-22T01:43:37;1.40;99.90
26745;DHT22;14342;50.960;13.880;2023-11-22T01:44:40;1.30;99.90
26745;DHT22;14342;50.960;13.880;2023-11-22T01:45:42;1.20;99.90
26745;DHT22;14342;50.960;13.880;2023-11-22T01:46:44;1.20;99.90
26745;DHT22;14342;50.960;13.880;2023-11-22T01:47:45;1.20;99.90
26745;DHT22;14342;50.960;13.880;2023-11-22T01:48:48;1.10;99.90
26745;DHT22;14342;50.960;13.880;2023-11-22T01:49:48;1.10;99.90
26745;DHT22;14342;50.960;13.880;2023-11-22T01:50:49;1.10;99.90
26745;DHT22;14342;50.960;13.880;2023-11-22T01:51:51;1.10;99.90
26745;DHT22;14342;50.960;13.880;2023-11-22T01:52:51;1.10;99.90
26745;DHT22;14342;50.960;13.880;2023-11-22T01:53:54;1.30;99.90
26745;DHT22;14342;50.960;13.880;2023-11-22T01:54:56;1.10;99.90
26745;DHT22;14342;50.960;13.880;2023-11-22T01:55:58;1.10;99.90
26745;DHT22;14342;50.960;13.880;2023-11-22T01:56:59;1.10;99.90
26745;DHT22;14342;50.960;13.880;2023-11-22T01:58:01;1.20;99.90
26745;DHT22;14342;50.960;13.880;2023-11-22T01:59:02;1.20;99.90
26745;DHT22;14342;50.960;13.880;2023-11-22T02:00:05;1.20;99.90
26745;DHT22;14342;50.960;13.880;2023-11-22T02:01:07;1.30;99.90
26745;DHT22;14342;50.960;13.880;2023-11-22T02:02:10;1.40;99.90
26745;DHT22;14342;50.960;13.880;2023-11-22T02:03:11;1.30;99.90
26745;DHT22;14342;50.960;13.880;2023-11-22T02:04:14;1.30;99.90
26745;DHT22;14342;50.960;13.880;2023-11-22T02:05:15;1.40;99.90
26745;DHT22;14342;50.960;13.880;2023-11-22T02:06:18;1.40;99.90
26745;DHT22;14342;50.960;13.880;2023-11-22T02:07:19;1.30;99.90
26745;DHT22;14342;50.960;13.880;2023-11-22T02:08:21;1.20;99.90
26745;DHT22;14342;50.960;13.880;2023-11-22T02:09:23;1.30;99.90
26745;DHT22;14342;50.960;13.880;2023-11-22T02:10:23;1.40;99.90
26745;DHT22;14342;50.960;13.880;2023-11-22T02:11:24;1.30;99.90
26745;DHT22;14342;50.960;13.880;2023-11-22T02:12:27;1.30;99.90
26745;DHT22;14342;50.960;13.880;2023-11-22T02:13:28;1.30;99.90
26745;DHT22;14342;50.960;13.880;2023-11-22T02:14:30;1.30;99.90
26745;DHT22;14342;50.960;13.880;2023-11-22T02:15:30;1.30;99.90
26745;DHT22;14342;50.960;13.880;2023-11-22T02:16:32;1.40;99.90
26745;DHT22;14342;50.960;13.880;2023-11-22T02:17:33;1.40;99.90
26745;DHT22;14342;50.960;13.880;2023-11-22T02:18:36;1.40;99.90
26745;DHT22;14342;50.960;13.880;2023-11-22T02:19:39;1.40;99.90
26745;DHT22;14342;50.960;13.880;2023-11-22T02:20:40;1.30;99.90
26745;DHT22;14342;50.960;13.880;2023-11-22T02:21:41;1.30;99.90
26745;DHT22;14342;50.960;13.880;2023-11-22T02:22:43;1.10;99.90
26745;DHT22;14342;50.960;13.880;2023-11-22T02:23:45;1.20;99.90
26745;DHT22;14342;50.960;13.880;2023-11-22T02:24:47;1.10;99.90
26745;DHT22;14342;50.960;13.880;2023-11-22T02:25:48;1.20;99.90
26745;DHT22;14342;50.960;13.880;2023-11-22T02:26:50;1.30;99.90
26745;DHT22;14342;50.960;13.880;2023-11-22T02:27:51;1.30;99.90
26745;DHT22;14342;50.960;13.880;2023-11-22T02:28:53;1.40;99.90
26745;DHT22;14342;50.960;13.880;2023-11-22T02:29:54;1.40;99.90
26745;DHT22;14342;50.960;13.880;2023-11-22T02:30:55;1.40;99.90
26745;DHT22;14342;50.960;13.880;2023-11-22T02:31:56;1.50;99.90
26745;DHT22;14342;50.960;13.880;2023-11-22T02:32:58;1.60;99.90
26745;DHT22;14342;50.960;13.880;2023-11-22T02:33:58;1.60;99.90
26745;DHT22;14342;50.960;13.880;2023-11-22T02:35:00;1.70;99.90
26745;DHT22;14342;50.960;13.880;2023-11-22T02:36:01;1.90;99.90
26745;DHT22;14342;50.960;13.880;2023-11-22T02:37:02;1.90;99.90
26745;DHT22;14342;50.960;13.880;2023-11-22T02:38:04;2.00;99.90
26745;DHT22;14342;50.960;13.880;2023-11-22T02:39:07;2.00;99.90
26745;DHT22;14342;50.960;13.880;2023-11-22T02:40:09;2.00;99.90
26745;DHT22;14342;50.960;13.880;2023-11-22T02:41:15;2.00;99.90
26745;DHT22;14342;50.960;13.880;2023-11-22T02:42:16;2.00;99.90
26745;DHT22;14342;50.960;13.880;2023-11-22T02:43:17;2.00;99.90
26745;DHT22;14342;50.960;13.880;2023-11-22T02:44:18;2.00;99.90
26745;DHT22;14342;50.960;13.880;2023-11-22T02:45:21;2.00;99.90
26745;DHT22;14342;50.960;13.880;2023-11-22T02:46:23;2.00;99.90
26745;DHT22;14342;50.960;13.880;2023-11-22T02:47:24;1.90;99.90
26745;DHT22;14342;50.960;13.880;2023-11-22T02:48:26;1.80;99.90
26745;DHT22;14342;50.960;13.880;2023-11-22T02:49:27;1.80;99.90
26745;DHT22;14342;50.960;13.880;2023-11-22T02:50:28;1.80;99.90
26745;DHT22;14342;50.960;13.880;2023-11-22T02:51:29;1.70;99.90
26745;DHT22;14342;50.960;13.880;2023-11-22T02:52:31;1.70;99.90
26745;DHT22;14342;50.960;13.880;2023-11-22T02:53:32;1.70;99.90
26745;DHT22;14342;50.960;13.880;2023-11-22T02:54:35;1.60;99.90
26745;DHT22;14342;50.960;13.880;2023-11-22T02:55:36;1.70;99.90
26745;DHT22;14342;50.960;13.880;2023-11-22T02:56:37;1.60;99.90
26745;DHT22;14342;50.960;13.880;2023-11-22T02:57:39;1.60;99.90
26745;DHT22;14342;50.960;13.880;2023-11-22T02:58:40;1.50;99.90
26745;DHT22;14342;50.960;13.880;2023-11-22T02:59:41;1.50;99.90
26745;DHT22;14342;50.960;13.880;2023-11-22T03:00:43;1.50;99.90
26745;DHT22;14342;50.960;13.880;2023-11-22T03:01:44;1.60;99.90
26745;DHT22;14342;50.960;13.880;2023-11-22T03:02:46;1.50;99.90
26745;DHT22;14342;50.960;13.880;2023-11-22T03:03:47;1.60;99.90
26745;DHT22;14342;50.960;13.880;2023-11-22T03:04:48;1.60;99.90
26745;DHT22;14342;50.960;13.880;2023-11-22T03:05:49;1.60;99.90
26745;DHT22;14342;50.960;13.880;2023-11-22T03:06:50;1.70;99.90
26745;DHT22;14342;50.960;13.880;2023-11-22T03:07:52;1.80;99.90
26745;DHT22;14342;50.960;13.880;2023-11-22T03:08:53;1.80;99.90
26745;DHT22;14342;50.960;13.880;2023-11-22T03:09:56;1.80;99.90
26745;DHT22;14342;50.960;13.880;2023-11-22T03:10:59;1.80;99.90
26745;DHT22;14342;50.960;13.880;2023-11-22T03:12:03;1.90;99.90
26745;DHT22;14342;50.960;13.880;2023-11-22T03:13:03;1.80;99.90
26745;DHT22;14342;50.960;13.880;2023-11-22T03:14:06;1.80;99.90
26745;DHT22;14342;50.960;13.880;2023-11-22T03:15:07;1.80;99.90
26745;DHT22;14342;50.960;13.880;2023-11-22T03:16:09;1.70;99.90
26745;DHT22;14342;50.960;13.880;2023-11-22T03:17:11;1.60;99.90
26745;DHT22;14342;50.960;13.880;2023-11-22T03:18:13;1.50;99.90
26745;DHT22;14342;50.960;13.880;2023-11-22T03:19:14;1.40;99.90
26745;DHT22;14342;50.960;13.880;2023-11-22T03:20:16;1.40;99.90
26745;DHT22;14342;50.960;13.880;2023-11-22T03:21:16;1.50;99.90
26745;DHT22;14342;50.960;13.880;2023-11-22T03:22:18;1.40;99.90
26745;DHT22;14342;50.960;13.880;2023-11-22T03:23:20;1.50;99.90
26745;DHT22;14342;50.960;13.880;2023-11-22T03:24:21;1.50;99.90
26745;DHT22;14342;50.960;13.880;2023-11-22T03:25:23;1.60;99.90
26745;DHT22;14342;50.960;13.880;2023-11-22T03:26:25;1.60;99.90
26745;DHT22;14342;50.960;13.880;2023-11-22T03:27:26;1.60;99.90
26745;DHT22;14342;50.960;13.880;2023-11-22T03:28:26;1.60;99.90
26745;DHT22;14342;50.960;13.880;2023-11-22T03:29:30;1.70;99.90
26745;DHT22;14342;50.960;13.880;2023-11-22T03:30:31;1.70;99.90
26745;DHT22;14342;50.960;13.880;2023-11-22T03:31:33;1.70;99.90
26745;DHT22;14342;50.960;13.880;2023-11-22T03:32:33;1.50;99.90
26745;DHT22;14342;50.960;13.880;2023-11-22T03:33:38;1.70;99.90
26745;DHT22;14342;50.960;13.880;2023-11-22T03:34:38;1.60;99.90
26745;DHT22;14342;50.960;13.880;2023-11-22T03:35:40;1.70;99.90
26745;DHT22;14342;50.960;13.880;2023-11-22T03:36:41;1.60;99.90
26745;DHT22;14342;50.960;13.880;2023-11-22T03:37:42;1.60;99.90
26745;DHT22;14342;50.960;13.880;2023-11-22T03:38:43;1.60;99.90
26745;DHT22;14342;50.960;13.880;2023-11-22T03:39:45;1.50;99.90
26745;DHT22;14342;50.960;13.880;2023-11-22T03:40:50;1.50;99.90
26745;DHT22;14342;50.960;13.880;2023-11-22T03:41:52;1.50;99.90
26745;DHT22;14342;50.960;13.880;2023-11-22T03:42:53;1.40;99.90
26745;DHT22;14342;50.960;13.880;2023-11-22T03:43:54;1.40;99.90
26745;DHT22;14342;50.960;13.880;2023-11-22T03:44:55;1.40;99.90
26745;DHT22;14342;50.960;13.880;2023-11-22T03:45:55;1.40;99.90
26745;DHT22;14342;50.960;13.880;2023-11-22T03:46:57;1.30;99.90
26745;DHT22;14342;50.960;13.880;2023-11-22T03:47:58;1.40;99.90
26745;DHT22;14342;50.960;13.880;2023-11-22T03:48:59;1.40;99.90
26745;DHT22;14342;50.960;13.880;2023-11-22T03:50:00;1.40;99.90
26745;DHT22;14342;50.960;13.880;2023-11-22T03:51:02;1.40;99.90
26745;DHT22;14342;50.960;13.880;2023-11-22T03:52:03;1.40;99.90
26745;DHT22;14342;50.960;13.880;2023-11-22T03:53:04;1.40;99.90
26745;DHT22;14342;50.960;13.880;2023-11-22T03:54:06;1.40;99.90
26745;DHT22;14342;50.960;13.880;2023-11-22T03:55:08;1.30;99.90
26745;DHT22;14342;50.960;13.880;2023-11-22T03:56:10;1.40;99.90
26745;DHT22;14342;50.960;13.880;2023-11-22T03:57:12;1.40;99.90
26745;DHT22;14342;50.960;13.880;2023-11-22T03:58:13;1.40;99.90
26745;DHT22;14342;50.960;13.880;2023-11-22T03:59:14;1.40;99.90
26745;DHT22;14342;50.960;13.880;2023-11-22T04:00:15;1.30;99.90
26745;DHT22;14342;50.960;13.880;2023-11-22T04:01:17;1.30;99.90
26745;DHT22;14342;50.960;13.880;2023-11-22T04:02:19;1.30;99.90
26745;DHT22;14342;50.960;13.880;2023-11-22T04:03:19;1.30;99.90
26745;DHT22;14342;50.960;13.880;2023-11-22T04:04:21;1.40;99.90
26745;DHT22;14342;50.960;13.880;2023-11-22T04:05:22;1.50;99.90
26745;DHT22;14342;50.960;13.880;2023-11-22T04:06:23;1.50;99.90
26745;DHT22;14342;50.960;13.880;2023-11-22T04:07:24;1.20;99.90
26745;DHT22;14342;50.960;13.880;2023-11-22T04:08:25;1.50;99.90
26745;DHT22;14342;50.960;13.880;2023-11-22T04:09:26;1.40;99.90
26745;DHT22;14342;50.960;13.880;2023-11-22T04:10:27;1.40;99.90
26745;DHT22;14342;50.960;13.880;2023-11-22T04:11:30;1.40;99.90
26745;DHT22;14342;50.960;13.880;2023-11-22T04:12:31;1.50;99.90
26745;DHT22;14342;50.960;13.880;2023-11-22T04:13:33;1.50;99.90
26745;DHT22;14342;50.960;13.880;2023-11-22T04:14:33;1.50;99.90
26745;DHT22;14342;50.960;13.880;2023-11-22T04:15:35;1.40;99.90
26745;DHT22;14342;50.960;13.880;2023-11-22T04:16:36;1.40;99.90
26745;DHT22;14342;50.960;13.880;2023-11-22T04:17:38;1.40;99.90
26745;DHT22;14342;50.960;13.880;2023-11-22T04:18:39;1.30;99.90
26745;DHT22;14342;50.960;13.880;2023-11-22T04:19:39;1.20;99.90
26745;DHT22;14342;50.960;13.880;2023-11-22T04:20:41;1.10;99.90
26745;DHT22;14342;50.960;13.880;2023-11-22T04:21:42;1.10;99.90
26745;DHT22;14342;50.960;13.880;2023-11-22T04:22:44;1.10;99.90
26745;DHT22;14342;50.960;13.880;2023-11-22T04:23:45;1.20;99.90
26745;DHT22;14342;50.960;13.880;2023-11-22T04:24:48;1.20;99.90
26745;DHT22;14342;50.960;13.880;2023-11-22T04:25:49;1.10;99.90
26745;DHT22;14342;50.960;13.880;2023-11-22T04:26:52;1.10;99.90
26745;DHT22;14342;50.960;13.880;2023-11-22T04:27:52;1.00;99.90
26745;DHT22;14342;50.960;13.880;2023-11-22T04:28:53;1.00;99.90
26745;DHT22;14342;50.960;13.880;2023-11-22T04:29:55;1.00;99.90
26745;DHT22;14342;50.960;13.880;2023-11-22T04:30:55;1.10;99.90
26745;DHT22;14342;50.960;13.880;2023-11-22T04:31:57;1.20;99.90
26745;DHT22;14342;50.960;13.880;2023-11-22T04:32:58;1.30;99.90
26745;DHT22;14342;50.960;13.880;2023-11-22T04:34:00;1.40;99.90
26745;DHT22;14342;50.960;13.880;2023-11-22T04:35:02;1.40;99.90
26745;DHT22;14342;50.960;13.880;2023-11-22T04:36:04;1.40;99.90
26745;DHT22;14342;50.960;13.880;2023-11-22T04:37:07;1.40;99.90
26745;DHT22;14342;50.960;13.880;2023-11-22T04:38:08;1.40;99.90
26745;DHT22;14342;50.960;13.880;2023-11-22T04:39:09;1.40;99.90
26745;DHT22;14342;50.960;13.880;2023-11-22T04:40:11;1.40;99.90
26745;DHT22;14342;50.960;13.880;2023-11-22T04:41:12;1.40;99.90
26745;DHT22;14342;50.960;13.880;2023-11-22T04:42:16;1.40;99.90
26745;DHT22;14342;50.960;13.880;2023-11-22T04:43:16;1.30;99.90
26745;DHT22;14342;50.960;13.880;2023-11-22T04:44:18;1.30;99.90
26745;DHT22;14342;50.960;13.880;2023-11-22T04:45:19;1.30;99.90
26745;DHT22;14342;50.960;13.880;2023-11-22T04:46:20;1.30;99.90
26745;DHT22;14342;50.960;13.880;2023-11-22T04:47:21;1.30;99.90
26745;DHT22;14342;50.960;13.880;2023-11-22T04:48:23;1.30;99.90
26745;DHT22;14342;50.960;13.880;2023-11-22T04:49:23;1.30;99.90
26745;DHT22;14342;50.960;13.880;2023-11-22T04:50:25;1.40;99.90
26745;DHT22;14342;50.960;13.880;2023-11-22T04:51:26;1.40;99.90
26745;DHT22;14342;50.960;13.880;2023-11-22T04:52:29;1.40;99.90
26745;DHT22;14342;50.960;13.880;2023-11-22T04:53:30;1.30;99.90
26745;DHT22;14342;50.960;13.880;2023-11-22T04:54:32;1.30;99.90
26745;DHT22;14342;50.960;13.880;2023-11-22T04:55:34;1.30;99.90
26745;DHT22;14342;50.960;13.880;2023-11-22T04:56:35;1.30;99.90
26745;DHT22;14342;50.960;13.880;2023-11-22T04:57:37;1.20;99.90
26745;DHT22;14342;50.960;13.880;2023-11-22T04:58:40;1.20;99.90
26745;DHT22;14342;50.960;13.880;2023-11-22T04:59:41;1.20;99.90
26745;DHT22;14342;50.960;13.880;2023-11-22T05:00:43;1.20;99.90
26745;DHT22;14342;50.960;13.880;2023-11-22T05:01:43;1.30;99.90
26745;DHT22;14342;50.960;13.880;2023-11-22T05:02:45;1.30;99.90
26745;DHT22;14342;50.960;13.880;2023-11-22T05:03:46;1.30;99.90
26745;DHT22;14342;50.960;13.880;2023-11-22T05:04:47;1.30;99.90
26745;DHT22;14342;50.960;13.880;2023-11-22T05:05:49;1.20;99.90
26745;DHT22;14342;50.960;13.880;2023-11-22T05:06:50;1.20;99.90
26745;DHT22;14342;50.960;13.880;2023-11-22T05:07:51;1.10;99.90
26745;DHT22;14342;50.960;13.880;2023-11-22T05:08:53;1.20;99.90
26745;DHT22;14342;50.960;13.880;2023-11-22T05:09:54;1.10;99.90
26745;DHT22;14342;50.960;13.880;2023-11-22T05:10:54;1.20;99.90
26745;DHT22;14342;50.960;13.880;2023-11-22T05:11:56;1.20;99.90
26745;DHT22;14342;50.960;13.880;2023-11-22T05:12:58;1.20;99.90
26745;DHT22;14342;50.960;13.880;2023-11-22T05:14:00;1.20;99.90
26745;DHT22;14342;50.960;13.880;2023-11-22T05:15:01;1.10;99.90
26745;DHT22;14342;50.960;13.880;2023-11-22T05:16:03;1.10;99.90
26745;DHT22;14342;50.960;13.880;2023-11-22T05:17:05;1.10;99.90
26745;DHT22;14342;50.960;13.880;2023-11-22T05:18:06;1.20;99.90
26745;DHT22;14342;50.960;13.880;2023-11-22T05:19:07;1.20;99.90
26745;DHT22;14342;50.960;13.880;2023-11-22T05:20:08;1.20;99.90
26745;DHT22;14342;50.960;13.880;2023-11-22T05:21:10;1.20;99.90
26745;DHT22;14342;50.960;13.880;2023-11-22T05:22:11;1.20;99.90
26745;DHT22;14342;50.960;13.880;2023-11-22T05:23:12;1.10;99.90
26745;DHT22;14342;50.960;13.880;2023-11-22T05:24:13;1.10;99.90
26745;DHT22;14342;50.960;13.880;2023-11-22T05:25:15;1.10;99.90
26745;DHT22;14342;50.960;13.880;2023-11-22T05:26:16;1.10;99.90
26745;DHT22;14342;50.960;13.880;2023-11-22T05:27:17;1.10;99.90
26745;DHT22;14342;50.960;13.880;2023-11-22T05:28:19;0.90;99.90
26745;DHT22;14342;50.960;13.880;2023-11-22T05:29:21;0.90;99.90
26745;DHT22;14342;50.960;13.880;2023-11-22T05:30:22;0.90;99.90
26745;DHT22;14342;50.960;13.880;2023-11-22T05:31:23;0.90;99.90
26745;DHT22;14342;50.960;13.880;2023-11-22T05:32:24;0.90;99.90
26745;DHT22;14342;50.960;13.880;2023-11-22T05:33:26;1.10;99.90
26745;DHT22;14342;50.960;13.880;2023-11-22T05:34:27;1.10;99.90
26745;DHT22;14342;50.960;13.880;2023-11-22T05:35:28;1.00;99.90
26745;DHT22;14342;50.960;13.880;2023-11-22T05:36:30;1.10;99.90
26745;DHT22;14342;50.960;13.880;2023-11-22T05:37:30;1.10;99.90
26745;DHT22;14342;50.960;13.880;2023-11-22T05:38:31;1.20;99.90
26745;DHT22;14342;50.960;13.880;2023-11-22T05:39:34;1.20;99.90
26745;DHT22;14342;50.960;13.880;2023-11-22T05:40:34;1.30;99.90
26745;DHT22;14342;50.960;13.880;2023-11-22T05:41:36;1.30;99.90
26745;DHT22;14342;50.960;13.880;2023-11-22T05:42:37;1.30;99.90
26745;DHT22;14342;50.960;13.880;2023-11-22T05:43:40;1.40;99.90
26745;DHT22;14342;50.960;13.880;2023-11-22T05:44:43;1.50;99.90
26745;DHT22;14342;50.960;13.880;2023-11-22T05:45:44;1.40;99.90
26745;DHT22;14342;50.960;13.880;2023-11-22T05:46:50;1.50;99.90
26745;DHT22;14342;50.960;13.880;2023-11-22T05:47:51;1.40;99.90
26745;DHT22;14342;50.960;13.880;2023-11-22T05:48:52;1.40;99.90
26745;DHT22;14342;50.960;13.880;2023-11-22T05:49:53;1.40;99.90
26745;DHT22;14342;50.960;13.880;2023-11-22T05:50:54;1.40;99.90
26745;DHT22;14342;50.960;13.880;2023-11-22T05:51:56;1.40;99.90
26745;DHT22;14342;50.960;13.880;2023-11-22T05:52:56;1.40;99.90
26745;DHT22;14342;50.960;13.880;2023-11-22T05:53:58;1.40;99.90
26745;DHT22;14342;50.960;13.880;2023-11-22T05:54:59;1.30;99.90
26745;DHT22;14342;50.960;13.880;2023-11-22T05:55:59;1.30;99.90
26745;DHT22;14342;50.960;13.880;2023-11-22T05:57:01;1.20;99.90
26745;DHT22;14342;50.960;13.880;2023-11-22T05:58:02;1.20;99.90
26745;DHT22;14342;50.960;13.880;2023-11-22T05:59:05;1.20;99.90
26745;DHT22;14342;50.960;13.880;2023-11-22T06:00:06;1.20;99.90
26745;DHT22;14342;50.960;13.880;2023-11-22T06:01:07;1.30;99.90
26745;DHT22;14342;50.960;13.880;2023-11-22T06:02:09;1.30;99.90
26745;DHT22;14342;50.960;13.880;2023-11-22T06:03:10;1.40;99.90
26745;DHT22;14342;50.960;13.880;2023-11-22T06:04:11;1.50;99.90
26745;DHT22;14342;50.960;13.880;2023-11-22T06:05:12;1.60;99.90
26745;DHT22;14342;50.960;13.880;2023-11-22T06:06:13;1.60;99.90
26745;DHT22;14342;50.960;13.880;2023-11-22T06:07:14;1.60;99.90
26745;DHT22;14342;50.960;13.880;2023-11-22T06:08:16;1.30;99.90
26745;DHT22;14342;50.960;13.880;2023-11-22T06:09:17;1.60;99.90
26745;DHT22;14342;50.960;13.880;2023-11-22T06:10:19;1.60;99.90
26745;DHT22;14342;50.960;13.880;2023-11-22T06:11:20;1.60;99.90
26745;DHT22;14342;50.960;13.880;2023-11-22T06:12:22;1.70;99.90
26745;DHT22;14342;50.960;13.880;2023-11-22T06:13:22;1.60;99.90
26745;DHT22;14342;50.960;13.880;2023-11-22T06:14:25;1.70;99.90
26745;DHT22;14342;50.960;13.880;2023-11-22T06:15:26;1.80;99.90
26745;DHT22;14342;50.960;13.880;2023-11-22T06:16:28;1.80;99.90
26745;DHT22;14342;50.960;13.880;2023-11-22T06:17:28;1.80;99.90
26745;DHT22;14342;50.960;13.880;2023-11-22T06:18:30;1.80;99.90
26745;DHT22;14342;50.960;13.880;2023-11-22T06:19:31;1.70;99.90
26745;DHT22;14342;50.960;13.880;2023-11-22T06:20:33;1.80;99.90
26745;DHT22;14342;50.960;13.880;2023-11-22T06:21:34;1.60;99.90
26745;DHT22;14342;50.960;13.880;2023-11-22T06:22:36;1.50;99.90
26745;DHT22;14342;50.960;13.880;2023-11-22T06:23:41;1.40;99.90
26745;DHT22;14342;50.960;13.880;2023-11-22T06:24:43;1.50;99.90
26745;DHT22;14342;50.960;13.880;2023-11-22T06:25:43;1.40;99.90
26745;DHT22;14342;50.960;13.880;2023-11-22T06:26:45;1.50;99.90
26745;DHT22;14342;50.960;13.880;2023-11-22T06:27:46;1.50;99.90